STSO2: STIGLER

Data processed at Fri Feb 23 2018 23:15


All information presented herein is the property of the government of the United States of America and may be revised or deleted at any time without prior notice.
Dissemination of this information without the expressed written consent of the Public Affairs Office, Tulsa District U.S. Army Corps of Engineers is strictly prohibited.
These data are gathered electronically and, as presented, have not undergone any form of quality control. These data are not guaranteed to be valid or correct.
Go to home page.
Go to station list.


Previous Day
Next Day
Current Day


    
SHEF ID:       SSBO2     Sab Bois Creek S of Stigler Ok
STATION TYPE:  

               PRECIP     STAGE  RIV-FLOW   VOLTAGE  BAT-LOAD
                   in        ft       cfs      volt      volt
              Ccp-Rev   Ccp-Rev   Ccp-Rev   Ccp-Rev   Ccp-Rev
(US/Central)
02/23 00:00      0.00     17.88      1627     12.73     12.65
02/23 01:00      0.00     18.37      1731     12.65     12.57
02/23 02:00      0.00     18.95      1859     12.65     12.57
02/23 03:00      0.00     19.48      1980     12.65     12.57
02/23 04:00      0.00     19.89      2077     12.65     12.57
02/23 05:00      0.00     20.17      2144     12.57     12.49
02/23 06:00      0.00     20.33      2183     12.57     12.49
02/23 07:00      0.00     20.40      2200     12.57     12.49
02/23 08:00      0.00     20.38      2196     12.65     12.49
02/23 09:00      0.00     20.29      2173     12.73     12.65
02/23 10:00      0.00     20.15      2139     12.89     12.81
02/23 11:00      0.04     19.97      2096     13.05     12.97
02/23 12:00      0.12     19.78      2050     12.81     12.73
02/23 13:00      0.18     19.59      2006     12.73     12.65
02/23 14:00      0.24     19.52      1989     12.73     12.65
02/23 15:00      0.11     19.71      2034     13.21     13.05
02/23 16:00      0.02     20.33      2183     13.05     12.97
02/23 17:00      0.03     21.17      2395     12.81     12.73
02/23 18:00      0.05     22.07      2635     12.65     12.57
02/23 19:00      0.03     23.00      2896     12.65     12.57
02/23 20:00      0.00     23.79      3128     12.57     12.49
02/23 21:00      0.01     24.45      3331     12.57     12.49
02/23 22:00      ----      ----      ----      ----      ----
02/23 23:00      ----      ----      ----      ----      ----